Time,TemperatureF,DewpointF,PressureIn,WindDirection,WindDirectionDegrees,WindSpeedMPH,WindSpeedGustMPH,Humidity,HourlyPrecipIn,Conditions,Clouds,dailyrainin,SoftwareType,DateUTC
2013-08-03 00:02:00,63.0,54.0,-100.00,WSW,255,0.0,0.0,73,0.00,,,-99.99,,2013-08-03 05:02:00,
2013-08-03 00:32:00,61.0,54.0,-100.00,WNW,295,0.0,0.0,77,0.00,,,-99.99,,2013-08-03 05:32:00,
2013-08-03 00:42:00,61.0,54.0,-100.00,WNW,295,0.0,0.0,77,0.00,,,-99.99,,2013-08-03 05:42:00,
2013-08-03 00:52:00,61.0,54.0,-100.00,WNW,295,0.0,0.0,77,0.00,,,-99.99,,2013-08-03 05:52:00,
2013-08-03 01:02:00,61.0,54.0,-100.00,WNW,295,0.0,0.0,77,0.00,,,-99.99,,2013-08-03 06:02:00,
2013-08-03 01:33:00,61.0,54.0,-100.00,West,280,0.0,0.0,76,0.00,,,-99.99,,2013-08-03 06:33:00,
2013-08-03 01:42:00,61.0,54.0,-100.00,West,280,0.0,0.0,76,0.00,,,-99.99,,2013-08-03 06:42:00,
2013-08-03 01:52:00,61.0,54.0,-100.00,West,280,0.0,0.0,76,0.00,,,-99.99,,2013-08-03 06:52:00,
2013-08-03 02:02:00,61.0,54.0,-100.00,West,280,0.0,0.0,76,0.00,,,-99.99,,2013-08-03 07:02:00,
2013-08-03 02:32:00,59.0,53.0,-100.00,NW,305,0.0,0.0,81,0.00,,,-99.99,,2013-08-03 07:32:00,
2013-08-03 02:43:00,59.0,53.0,-100.00,NW,305,0.0,0.0,81,0.00,,,-99.99,,2013-08-03 07:43:00,
2013-08-03 02:53:00,59.0,53.0,-100.00,NW,305,0.0,0.0,81,0.00,,,-99.99,,2013-08-03 07:53:00,
2013-08-03 03:02:00,59.0,53.0,-100.00,NW,305,0.0,0.0,81,0.00,,,-99.99,,2013-08-03 08:02:00,
2013-08-03 03:32:00,57.0,53.0,-100.00,WNW,295,0.0,0.0,87,0.00,,,-99.99,,2013-08-03 08:32:00,
2013-08-03 03:43:00,57.0,53.0,-100.00,WNW,295,0.0,0.0,87,0.00,,,-99.99,,2013-08-03 08:43:00,
2013-08-03 03:52:00,57.0,53.0,-100.00,WNW,295,0.0,0.0,87,0.00,,,-99.99,,2013-08-03 08:52:00,
2013-08-03 04:02:00,57.0,53.0,-100.00,WNW,295,0.0,0.0,87,0.00,,,-99.99,,2013-08-03 09:02:00,
2013-08-03 04:32:00,57.0,54.0,-100.00,WNW,295,0.0,0.0,90,0.00,,,-99.99,,2013-08-03 09:32:00,
2013-08-03 04:43:00,57.0,54.0,-100.00,WNW,295,0.0,0.0,90,0.00,,,-99.99,,2013-08-03 09:43:00,
2013-08-03 04:53:00,57.0,54.0,-100.00,WNW,295,0.0,0.0,90,0.00,,,-99.99,,2013-08-03 09:53:00,
2013-08-03 05:02:00,57.0,54.0,-100.00,WNW,295,0.0,0.0,90,0.00,,,-99.99,,2013-08-03 10:02:00,
2013-08-03 05:10:00,56.0,54.0,-100.00,WNW,300,0.0,0.0,92,0.00,,,-99.99,,2013-08-03 10:10:00,
2013-08-03 05:33:00,56.0,54.0,-100.00,WNW,300,0.0,0.0,92,0.00,,,-99.99,,2013-08-03 10:33:00,
2013-08-03 05:42:00,56.0,54.0,-100.00,WNW,300,0.0,0.0,92,0.00,,,-99.99,,2013-08-03 10:42:00,
2013-08-03 05:53:00,56.0,54.0,-100.00,WNW,300,0.0,0.0,92,0.00,,,-99.99,,2013-08-03 10:53:00,
2013-08-03 06:02:00,56.0,54.0,-100.00,WNW,300,0.0,0.0,92,0.00,,,-99.99,,2013-08-03 11:02:00,
2013-08-03 06:32:00,55.0,53.0,-100.00,WNW,300,0.0,0.0,94,0.00,,,-99.99,,2013-08-03 11:32:00,
2013-08-03 06:43:00,55.0,53.0,-100.00,WNW,300,0.0,0.0,94,0.00,,,-99.99,,2013-08-03 11:43:00,
2013-08-03 06:53:00,55.0,53.0,-100.00,WNW,300,0.0,0.0,94,0.00,,,-99.99,,2013-08-03 11:53:00,
2013-08-03 07:03:00,55.0,53.0,-100.00,WNW,300,0.0,0.0,94,0.00,,,-99.99,,2013-08-03 12:03:00,
2013-08-03 07:33:00,63.0,58.0,-100.00,NW,315,0.0,0.0,84,0.00,,,-99.99,,2013-08-03 12:33:00,
2013-08-03 07:43:00,63.0,58.0,-100.00,NW,315,0.0,0.0,84,0.00,,,-99.99,,2013-08-03 12:43:00,
2013-08-03 07:52:00,63.0,58.0,-100.00,NW,315,0.0,0.0,84,0.00,,,-99.99,,2013-08-03 12:52:00,
2013-08-03 08:02:00,63.0,58.0,-100.00,NW,315,0.0,0.0,84,0.00,,,-99.99,,2013-08-03 13:02:00,
2013-08-03 08:43:00,63.0,54.0,-100.00,West,275,0.0,0.0,75,0.00,,,-99.99,,2013-08-03 13:43:00,
2013-08-03 08:52:00,63.0,54.0,-100.00,West,275,0.0,0.0,75,0.00,,,-99.99,,2013-08-03 13:52:00,
2013-08-03 09:02:00,63.0,54.0,-100.00,West,275,0.0,0.0,75,0.00,,,-99.99,,2013-08-03 14:02:00,
2013-08-03 09:33:00,68.0,53.0,-100.00,NW,315,0.0,0.0,58,0.00,,,-99.99,,2013-08-03 14:33:00,
2013-08-03 09:43:00,68.0,53.0,-100.00,NW,315,0.0,0.0,58,0.00,,,-99.99,,2013-08-03 14:43:00,
2013-08-03 09:52:00,68.0,53.0,-100.00,NW,315,0.0,0.0,58,0.00,,,-99.99,,2013-08-03 14:52:00,
2013-08-03 10:02:00,68.0,53.0,-100.00,NW,315,0.0,0.0,58,0.00,,,-99.99,,2013-08-03 15:02:00,
2013-08-03 10:32:00,71.0,52.0,-100.00,NNW,335,0.0,0.0,51,0.00,,,-99.99,,2013-08-03 15:32:00,
2013-08-03 10:43:00,71.0,52.0,-100.00,NNW,335,0.0,0.0,51,0.00,,,-99.99,,2013-08-03 15:43:00,
2013-08-03 10:53:00,71.0,52.0,-100.00,NNW,335,0.0,0.0,51,0.00,,,-99.99,,2013-08-03 15:53:00,
2013-08-03 11:02:00,71.0,52.0,-100.00,NNW,335,0.0,0.0,51,0.00,,,-99.99,,2013-08-03 16:02:00,
2013-08-03 11:33:00,72.0,51.0,-100.00,North,0,0.0,0.0,47,0.00,,,-99.99,,2013-08-03 16:33:00,
2013-08-03 11:43:00,72.0,51.0,-100.00,North,0,0.0,0.0,47,0.00,,,-99.99,,2013-08-03 16:43:00,
2013-08-03 11:53:00,72.0,51.0,-100.00,North,0,0.0,0.0,47,0.00,,,-99.99,,2013-08-03 16:53:00,
2013-08-03 12:03:00,72.0,51.0,-100.00,North,0,0.0,0.0,47,0.00,,,-99.99,,2013-08-03 17:03:00,
2013-08-03 13:32:00,73.0,47.0,-100.00,North,0,0.0,0.0,39,0.00,,,-99.99,,2013-08-03 18:32:00,
2013-08-03 13:43:00,73.0,47.0,-100.00,North,0,0.0,0.0,39,0.00,,,-99.99,,2013-08-03 18:43:00,
2013-08-03 13:53:00,73.0,47.0,-100.00,North,0,0.0,0.0,39,0.00,,,-99.99,,2013-08-03 18:53:00,
2013-08-03 14:02:00,73.0,47.0,-100.00,North,0,0.0,0.0,39,0.00,,,-99.99,,2013-08-03 19:02:00,
2013-08-03 14:32:00,73.0,47.0,-100.00,North,350,0.0,0.0,40,0.00,,,-99.99,,2013-08-03 19:32:00,
2013-08-03 14:43:00,73.0,47.0,-100.00,North,350,0.0,0.0,40,0.00,,,-99.99,,2013-08-03 19:43:00,
2013-08-03 14:53:00,73.0,47.0,-100.00,North,350,0.0,0.0,40,0.00,,,-99.99,,2013-08-03 19:53:00,
2013-08-03 15:02:00,73.0,47.0,-100.00,North,350,0.0,0.0,40,0.00,,,-99.99,,2013-08-03 20:02:00,
2013-08-03 15:32:00,76.0,47.0,-100.00,WNW,285,0.0,0.0,36,0.00,,,-99.99,,2013-08-03 20:32:00,
2013-08-03 15:42:00,76.0,47.0,-100.00,WNW,285,0.0,0.0,36,0.00,,,-99.99,,2013-08-03 20:42:00,
2013-08-03 15:52:00,76.0,47.0,-100.00,WNW,285,0.0,0.0,36,0.00,,,-99.99,,2013-08-03 20:52:00,
2013-08-03 16:02:00,76.0,47.0,-100.00,WNW,285,0.0,0.0,36,0.00,,,-99.99,,2013-08-03 21:02:00,
2013-08-03 16:32:00,73.0,47.0,-100.00,NNW,345,0.0,0.0,39,0.00,,,-99.99,,2013-08-03 21:32:00,
2013-08-03 16:42:00,73.0,47.0,-100.00,NNW,345,0.0,0.0,39,0.00,,,-99.99,,2013-08-03 21:42:00,
2013-08-03 16:52:00,73.0,47.0,-100.00,NNW,345,0.0,0.0,39,0.00,,,-99.99,,2013-08-03 21:52:00,
2013-08-03 17:02:00,73.0,47.0,-100.00,NNW,345,0.0,0.0,39,0.00,,,-99.99,,2013-08-03 22:02:00,
2013-08-03 17:33:00,71.0,47.0,-100.00,North,0,0.0,0.0,42,0.00,,,-99.99,,2013-08-03 22:33:00,
2013-08-03 17:43:00,71.0,47.0,-100.00,North,0,0.0,0.0,42,0.00,,,-99.99,,2013-08-03 22:43:00,
2013-08-03 17:52:00,71.0,47.0,-100.00,North,0,0.0,0.0,42,0.00,,,-99.99,,2013-08-03 22:52:00,
2013-08-03 18:02:00,71.0,47.0,-100.00,North,0,0.0,0.0,42,0.00,,,-99.99,,2013-08-03 23:02:00,
2013-08-03 18:32:00,72.0,44.0,-100.00,NW,310,0.0,0.0,37,0.00,,,-99.99,,2013-08-03 23:32:00,
2013-08-03 18:43:00,72.0,44.0,-100.00,NW,310,0.0,0.0,37,0.00,,,-99.99,,2013-08-03 23:43:00,
2013-08-03 18:52:00,72.0,44.0,-100.00,NW,310,0.0,0.0,37,0.00,,,-99.99,,2013-08-03 23:52:00,
2013-08-03 19:02:00,72.0,44.0,-100.00,NW,310,0.0,0.0,37,0.00,,,-99.99,,2013-08-04 00:02:00,
2013-08-03 19:32:00,71.0,43.0,-100.00,NW,325,0.0,0.0,37,0.00,,,-99.99,,2013-08-04 00:32:00,
2013-08-03 19:42:00,71.0,43.0,-100.00,NW,325,0.0,0.0,37,0.00,,,-99.99,,2013-08-04 00:42:00,
2013-08-03 19:52:00,71.0,43.0,-100.00,NW,325,0.0,0.0,37,0.00,,,-99.99,,2013-08-04 00:52:00,
2013-08-03 20:02:00,71.0,43.0,-100.00,NW,325,0.0,0.0,37,0.00,,,-99.99,,2013-08-04 01:02:00,
2013-08-03 20:32:00,66.0,46.0,-100.00,WNW,290,0.0,0.0,48,0.00,,,-99.99,,2013-08-04 01:32:00,
2013-08-03 20:42:00,66.0,46.0,-100.00,WNW,290,0.0,0.0,48,0.00,,,-99.99,,2013-08-04 01:42:00,
2013-08-03 20:53:00,66.0,46.0,-100.00,WNW,290,0.0,0.0,48,0.00,,,-99.99,,2013-08-04 01:53:00,
2013-08-03 21:02:00,66.0,46.0,-100.00,WNW,290,0.0,0.0,48,0.00,,,-99.99,,2013-08-04 02:02:00,
2013-08-03 21:32:00,66.0,45.0,-100.00,NNW,340,0.0,0.0,46,0.00,,,-99.99,,2013-08-04 02:32:00,
2013-08-03 21:42:00,66.0,45.0,-100.00,NNW,340,0.0,0.0,46,0.00,,,-99.99,,2013-08-04 02:42:00,
2013-08-03 21:52:00,66.0,45.0,-100.00,NNW,340,0.0,0.0,46,0.00,,,-99.99,,2013-08-04 02:52:00,
2013-08-03 22:02:00,66.0,45.0,-100.00,NNW,340,0.0,0.0,46,0.00,,,-99.99,,2013-08-04 03:02:00,
2013-08-03 22:32:00,64.0,46.0,-100.00,NNW,345,0.0,0.0,52,0.00,,,-99.99,,2013-08-04 03:32:00,
2013-08-03 23:32:00,63.0,45.0,-100.00,NW,310,0.0,0.0,52,0.00,,,-99.99,,2013-08-04 04:32:00,